GLO1141 SBFL-SBGR
Flight info
| Callsign | GLO1141 |
|---|---|
| Flight time | 0h 58m |
| Altitude | 35000 |
| Route | ILVOR UZ69 XONUG UZ121 BUXUK |
| Aircraft | B38M/M-DFGHIJ4J7KLORWXY/LB1 |
Departure
| Time | 2026-04-25 19:26 |
|---|---|
| Airport | Hercílio Luz International Airport (SBFL) |
Arrival
| Time | 2026-04-25 20:25 |
|---|---|
| Airport | São Paulo/Guarulhos–Governor André Franco Montoro International Airport (SBGR) |
| Time | Latitude | Longitude | Altitude | Speed | Heading |
|---|---|---|---|---|---|
| 2026-04-25 18:56 | -27.67299 | -48.54503 | 31 ft | 0 kts | 211° |
| 2026-04-25 19:15 | -27.67295 | -48.54500 | 31 ft | 3 kts | 212° |
| 2026-04-25 19:16 | -27.67278 | -48.54480 | 31 ft | 4 kts | 252° |
| 2026-04-25 19:16 | -27.67279 | -48.54453 | 31 ft | 3 kts | 298° |
| 2026-04-25 19:16 | -27.67280 | -48.54450 | 31 ft | 2 kts | 301° |
| 2026-04-25 19:21 | -27.67275 | -48.54460 | 31 ft | 3 kts | 301° |
| 2026-04-25 19:21 | -27.67235 | -48.54534 | 31 ft | 8 kts | 301° |
| 2026-04-25 19:21 | -27.67201 | -48.54594 | 31 ft | 10 kts | 312° |
| 2026-04-25 19:22 | -27.67129 | -48.54613 | 31 ft | 12 kts | 15° |
| 2026-04-25 19:22 | -27.67051 | -48.54599 | 31 ft | 11 kts | 325° |
| 2026-04-25 19:22 | -27.66946 | -48.54782 | 30 ft | 16 kts | 301° |
| 2026-04-25 19:23 | -27.66883 | -48.54900 | 30 ft | 19 kts | 301° |
| 2026-04-25 19:23 | -27.66717 | -48.55122 | 30 ft | 19 kts | 344° |
| 2026-04-25 19:23 | -27.66597 | -48.55112 | 30 ft | 18 kts | 70° |
| 2026-04-25 19:24 | -27.66614 | -48.55042 | 28 ft | 0 kts | 120° |
| 2026-04-25 19:25 | -27.66620 | -48.55031 | 28 ft | 6 kts | 120° |
| 2026-04-25 19:25 | -27.66751 | -48.54787 | 28 ft | 76 kts | 121° |
| 2026-04-25 19:26 | -27.67159 | -48.54030 | 27 ft | 147 kts | 121° |
| 2026-04-25 19:26 | -27.67779 | -48.52876 | 233 ft | 187 kts | 121° |
| 2026-04-25 19:26 | -27.68460 | -48.51613 | 1045 ft | 188 kts | 124° |
| 2026-04-25 19:26 | -27.69169 | -48.50300 | 1810 ft | 206 kts | 122° |
| 2026-04-25 19:27 | -27.69859 | -48.48807 | 2649 ft | 218 kts | 108° |
| 2026-04-25 19:27 | -27.69980 | -48.48244 | 3013 ft | 222 kts | 98° |
| 2026-04-25 19:27 | -27.69056 | -48.45505 | 4382 ft | 236 kts | 34° |
| 2026-04-25 19:27 | -27.67616 | -48.44629 | 5211 ft | 236 kts | 20° |
| 2026-04-25 19:28 | -27.66066 | -48.43928 | 5695 ft | 243 kts | 17° |
| 2026-04-25 19:28 | -27.64514 | -48.43207 | 6489 ft | 244 kts | 17° |
| 2026-04-25 19:28 | -27.62938 | -48.42424 | 7360 ft | 252 kts | 18° |
| 2026-04-25 19:28 | -27.61332 | -48.41581 | 8277 ft | 256 kts | 19° |
| 2026-04-25 19:29 | -27.59717 | -48.40707 | 9236 ft | 259 kts | 19° |
| 2026-04-25 19:29 | -27.58082 | -48.39810 | 10122 ft | 263 kts | 19° |
| 2026-04-25 19:29 | -27.56427 | -48.38892 | 10960 ft | 267 kts | 19° |
| 2026-04-25 19:29 | -27.54696 | -48.38090 | 11615 ft | 271 kts | 2° |
| 2026-04-25 19:30 | -27.52861 | -48.38135 | 12124 ft | 273 kts | 342° |
| 2026-04-25 19:30 | -27.50874 | -48.38484 | 12598 ft | 295 kts | 345° |
| 2026-04-25 19:30 | -27.48764 | -48.38841 | 13008 ft | 316 kts | 345° |
| 2026-04-25 19:30 | -27.46524 | -48.39231 | 13446 ft | 334 kts | 345° |
| 2026-04-25 19:31 | -27.44213 | -48.39641 | 13993 ft | 346 kts | 345° |
| 2026-04-25 19:31 | -27.41811 | -48.40071 | 14745 ft | 348 kts | 345° |
| 2026-04-25 19:31 | -27.39394 | -48.40506 | 15445 ft | 353 kts | 345° |
| 2026-04-25 19:31 | -27.36981 | -48.40941 | 16165 ft | 356 kts | 345° |
| 2026-04-25 19:32 | -27.34515 | -48.41386 | 16830 ft | 361 kts | 345° |
| 2026-04-25 19:32 | -27.32012 | -48.41838 | 17487 ft | 366 kts | 345° |
| 2026-04-25 19:32 | -27.29482 | -48.42295 | 18148 ft | 370 kts | 345° |
| 2026-04-25 19:32 | -27.28649 | -48.42445 | 18336 ft | 371 kts | 345° |
| 2026-04-25 19:33 | -27.24375 | -48.43218 | 19291 ft | 376 kts | 345° |
| 2026-04-25 19:33 | -27.21776 | -48.43692 | 19862 ft | 379 kts | 344° |
| 2026-04-25 19:33 | -27.19157 | -48.44169 | 20420 ft | 382 kts | 343° |
| 2026-04-25 19:33 | -27.16521 | -48.44648 | 20963 ft | 385 kts | 343° |
| 2026-04-25 19:34 | -27.13859 | -48.45133 | 21510 ft | 388 kts | 343° |
| 2026-04-25 19:34 | -27.11181 | -48.45619 | 22045 ft | 390 kts | 343° |
| 2026-04-25 19:34 | -27.08508 | -48.46105 | 22567 ft | 393 kts | 342° |
| 2026-04-25 19:34 | -27.05786 | -48.46600 | 23091 ft | 396 kts | 342° |
| 2026-04-25 19:35 | -27.03069 | -48.47093 | 23558 ft | 399 kts | 342° |
| 2026-04-25 19:35 | -27.00307 | -48.47594 | 23989 ft | 401 kts | 342° |
| 2026-04-25 19:35 | -26.97576 | -48.48089 | 24413 ft | 403 kts | 342° |
| 2026-04-25 19:35 | -26.94799 | -48.48592 | 24851 ft | 404 kts | 342° |
| 2026-04-25 19:36 | -26.92009 | -48.49098 | 25278 ft | 406 kts | 342° |
| 2026-04-25 19:36 | -26.89206 | -48.49605 | 25701 ft | 408 kts | 342° |
| 2026-04-25 19:36 | -26.86395 | -48.50114 | 26129 ft | 410 kts | 342° |
| 2026-04-25 19:36 | -26.83565 | -48.50626 | 26549 ft | 412 kts | 341° |
| 2026-04-25 19:37 | -26.80765 | -48.51133 | 26953 ft | 414 kts | 341° |
| 2026-04-25 19:37 | -26.77908 | -48.51649 | 27364 ft | 416 kts | 341° |
| 2026-04-25 19:37 | -26.75037 | -48.52168 | 27763 ft | 418 kts | 341° |
| 2026-04-25 19:37 | -26.72156 | -48.52688 | 28157 ft | 420 kts | 341° |
| 2026-04-25 19:38 | -26.70237 | -48.53034 | 28424 ft | 421 kts | 341° |
| 2026-04-25 19:38 | -26.67322 | -48.53560 | 28811 ft | 423 kts | 341° |
| 2026-04-25 19:38 | -26.64401 | -48.54087 | 29191 ft | 425 kts | 341° |
| 2026-04-25 19:38 | -26.61511 | -48.54607 | 29565 ft | 427 kts | 341° |
| 2026-04-25 19:39 | -26.58561 | -48.55139 | 29929 ft | 429 kts | 341° |
| 2026-04-25 19:39 | -26.55598 | -48.55672 | 30238 ft | 431 kts | 341° |
| 2026-04-25 19:39 | -26.52617 | -48.56208 | 30491 ft | 434 kts | 341° |
| 2026-04-25 19:39 | -26.49637 | -48.56744 | 30780 ft | 437 kts | 341° |
| 2026-04-25 19:40 | -26.46621 | -48.57286 | 31082 ft | 438 kts | 341° |
| 2026-04-25 19:40 | -26.43602 | -48.57829 | 31381 ft | 440 kts | 341° |
| 2026-04-25 19:40 | -26.40514 | -48.58136 | 31663 ft | 456 kts | 354° |
| 2026-04-25 19:40 | -26.37306 | -48.57778 | 31976 ft | 462 kts | 356° |
| 2026-04-25 19:41 | -26.34136 | -48.57449 | 32214 ft | 465 kts | 356° |
| 2026-04-25 19:41 | -26.30900 | -48.57098 | 32505 ft | 467 kts | 356° |
| 2026-04-25 19:41 | -26.27654 | -48.56734 | 32862 ft | 467 kts | 357° |
| 2026-04-25 19:41 | -26.25509 | -48.56493 | 33107 ft | 467 kts | 357° |
| 2026-04-25 19:42 | -26.21182 | -48.56005 | 33629 ft | 466 kts | 356° |
| 2026-04-25 19:42 | -26.17992 | -48.55646 | 34012 ft | 465 kts | 356° |
| 2026-04-25 19:42 | -26.14761 | -48.55282 | 34362 ft | 464 kts | 356° |
| 2026-04-25 19:42 | -26.11544 | -48.54920 | 34703 ft | 463 kts | 356° |
| 2026-04-25 19:43 | -26.08358 | -48.54562 | 34879 ft | 464 kts | 357° |
| 2026-04-25 19:43 | -26.05151 | -48.54201 | 34896 ft | 461 kts | 357° |
| 2026-04-25 19:43 | -25.98825 | -48.53491 | 34900 ft | 454 kts | 356° |
| 2026-04-25 19:44 | -25.92530 | -48.52785 | 34902 ft | 455 kts | 356° |
| 2026-04-25 19:44 | -25.86221 | -48.52078 | 34899 ft | 454 kts | 356° |
| 2026-04-25 19:45 | -25.79947 | -48.51375 | 34896 ft | 455 kts | 357° |
| 2026-04-25 19:45 | -25.73619 | -48.50667 | 34897 ft | 455 kts | 357° |
| 2026-04-25 19:46 | -25.67344 | -48.49965 | 34900 ft | 455 kts | 357° |
| 2026-04-25 19:46 | -25.61032 | -48.49260 | 34899 ft | 455 kts | 357° |
| 2026-04-25 19:47 | -25.54707 | -48.48554 | 34902 ft | 457 kts | 357° |
| 2026-04-25 19:47 | -25.48408 | -48.47852 | 34893 ft | 457 kts | 357° |
| 2026-04-25 19:48 | -25.42072 | -48.47147 | 34894 ft | 457 kts | 357° |
| 2026-04-25 19:48 | -25.35723 | -48.46438 | 34878 ft | 458 kts | 358° |
| 2026-04-25 19:49 | -25.30444 | -48.45850 | 34907 ft | 459 kts | 358° |
| 2026-04-25 19:49 | -25.23021 | -48.45023 | 34906 ft | 459 kts | 358° |
| 2026-04-25 19:50 | -25.13494 | -48.43959 | 34914 ft | 460 kts | 359° |
| 2026-04-25 19:50 | -25.10335 | -48.43133 | 34904 ft | 471 kts | 13° |
| 2026-04-25 19:51 | -25.07224 | -48.41980 | 34904 ft | 472 kts | 11° |
| 2026-04-25 19:51 | -25.00963 | -48.39749 | 34923 ft | 472 kts | 11° |
| 2026-04-25 19:52 | -24.94732 | -48.37495 | 34918 ft | 473 kts | 11° |
| 2026-04-25 19:52 | -24.88469 | -48.35229 | 34913 ft | 472 kts | 11° |
| 2026-04-25 19:53 | -24.82246 | -48.32979 | 34915 ft | 472 kts | 12° |
| 2026-04-25 19:53 | -24.75989 | -48.30721 | 34903 ft | 472 kts | 12° |
| 2026-04-25 19:54 | -24.69742 | -48.28467 | 34899 ft | 472 kts | 12° |
| 2026-04-25 19:54 | -24.63493 | -48.26216 | 34918 ft | 472 kts | 12° |
| 2026-04-25 19:55 | -24.57284 | -48.23980 | 34906 ft | 472 kts | 12° |
| 2026-04-25 19:55 | -24.51066 | -48.21744 | 34914 ft | 471 kts | 12° |
| 2026-04-25 19:56 | -24.44812 | -48.19497 | 34930 ft | 471 kts | 12° |
| 2026-04-25 19:56 | -24.38603 | -48.17271 | 34919 ft | 471 kts | 12° |
| 2026-04-25 19:57 | -24.32501 | -48.14552 | 34940 ft | 479 kts | 24° |
| 2026-04-25 19:57 | -24.26638 | -48.11081 | 34916 ft | 479 kts | 22° |
| 2026-04-25 19:58 | -24.20735 | -48.07608 | 34921 ft | 480 kts | 22° |
| 2026-04-25 19:58 | -24.14876 | -48.04158 | 34943 ft | 480 kts | 23° |
| 2026-04-25 19:59 | -24.08984 | -48.00692 | 34933 ft | 480 kts | 23° |
| 2026-04-25 19:59 | -24.03094 | -47.97232 | 34931 ft | 480 kts | 23° |
| 2026-04-25 19:59 | -24.00149 | -47.95501 | 34725 ft | 476 kts | 23° |
| 2026-04-25 20:00 | -23.97234 | -47.93792 | 34126 ft | 476 kts | 23° |
| 2026-04-25 20:00 | -23.95289 | -47.92651 | 33463 ft | 481 kts | 23° |
| 2026-04-25 20:00 | -23.91293 | -47.90309 | 32223 ft | 489 kts | 23° |
| 2026-04-25 20:00 | -23.88331 | -47.88574 | 31684 ft | 486 kts | 23° |
| 2026-04-25 20:01 | -23.82426 | -47.85116 | 30791 ft | 476 kts | 22° |
| 2026-04-25 20:01 | -23.79505 | -47.83407 | 30233 ft | 475 kts | 22° |
| 2026-04-25 20:01 | -23.76621 | -47.81580 | 29513 ft | 481 kts | 32° |
| 2026-04-25 20:02 | -23.74143 | -47.79150 | 28791 ft | 487 kts | 40° |
| 2026-04-25 20:02 | -23.71703 | -47.76606 | 28315 ft | 481 kts | 39° |
| 2026-04-25 20:02 | -23.69292 | -47.74096 | 27859 ft | 475 kts | 40° |
| 2026-04-25 20:02 | -23.66903 | -47.71590 | 27286 ft | 473 kts | 40° |
| 2026-04-25 20:03 | -23.64564 | -47.69131 | 26784 ft | 470 kts | 40° |
| 2026-04-25 20:03 | -23.62215 | -47.66661 | 26439 ft | 463 kts | 40° |
| 2026-04-25 20:03 | -23.59916 | -47.64245 | 26135 ft | 455 kts | 40° |
| 2026-04-25 20:03 | -23.57624 | -47.61837 | 25803 ft | 455 kts | 40° |
| 2026-04-25 20:04 | -23.55377 | -47.59477 | 25460 ft | 453 kts | 40° |
| 2026-04-25 20:04 | -23.53110 | -47.57098 | 25123 ft | 450 kts | 40° |
| 2026-04-25 20:04 | -23.50856 | -47.54733 | 24808 ft | 447 kts | 40° |
| 2026-04-25 20:04 | -23.48608 | -47.52375 | 24458 ft | 445 kts | 40° |
| 2026-04-25 20:05 | -23.46414 | -47.50077 | 24135 ft | 442 kts | 40° |
| 2026-04-25 20:05 | -23.44190 | -47.47747 | 23806 ft | 439 kts | 41° |
| 2026-04-25 20:05 | -23.41984 | -47.45438 | 23459 ft | 437 kts | 41° |
| 2026-04-25 20:05 | -23.39819 | -47.43172 | 23077 ft | 434 kts | 41° |
| 2026-04-25 20:06 | -23.37653 | -47.40906 | 22778 ft | 431 kts | 41° |
| 2026-04-25 20:06 | -23.35492 | -47.38645 | 22527 ft | 429 kts | 41° |
| 2026-04-25 20:06 | -23.33355 | -47.36411 | 22270 ft | 426 kts | 41° |
| 2026-04-25 20:06 | -23.31220 | -47.34180 | 22001 ft | 423 kts | 41° |
| 2026-04-25 20:07 | -23.29096 | -47.31962 | 21750 ft | 421 kts | 41° |
| 2026-04-25 20:07 | -23.27000 | -47.29773 | 21492 ft | 419 kts | 41° |
| 2026-04-25 20:07 | -23.24889 | -47.27571 | 21229 ft | 417 kts | 41° |
| 2026-04-25 20:07 | -23.22803 | -47.25395 | 20965 ft | 415 kts | 41° |
| 2026-04-25 20:08 | -23.20715 | -47.23219 | 20717 ft | 413 kts | 41° |
| 2026-04-25 20:08 | -23.18670 | -47.21087 | 20495 ft | 411 kts | 41° |
| 2026-04-25 20:08 | -23.16596 | -47.18927 | 20238 ft | 409 kts | 41° |
| 2026-04-25 20:08 | -23.14576 | -47.16790 | 19984 ft | 407 kts | 44° |
| 2026-04-25 20:09 | -23.12659 | -47.14528 | 19703 ft | 405 kts | 44° |
| 2026-04-25 20:09 | -23.10759 | -47.12284 | 19422 ft | 402 kts | 47° |
| 2026-04-25 20:09 | -23.09272 | -47.09680 | 18708 ft | 414 kts | 68° |
| 2026-04-25 20:09 | -23.08766 | -47.06610 | 17917 ft | 425 kts | 91° |
| 2026-04-25 20:10 | -23.09298 | -47.03449 | 17052 ft | 429 kts | 109° |
| 2026-04-25 20:10 | -23.10163 | -47.00321 | 16222 ft | 434 kts | 106° |
| 2026-04-25 20:10 | -23.10947 | -46.97141 | 15404 ft | 437 kts | 105° |
| 2026-04-25 20:10 | -23.11710 | -46.93951 | 14593 ft | 428 kts | 105° |
| 2026-04-25 20:11 | -23.12436 | -46.90888 | 13649 ft | 420 kts | 106° |
| 2026-04-25 20:11 | -23.13158 | -46.87829 | 12820 ft | 409 kts | 106° |
| 2026-04-25 20:11 | -23.13858 | -46.84913 | 12646 ft | 391 kts | 106° |
| 2026-04-25 20:11 | -23.14531 | -46.82085 | 12360 ft | 382 kts | 106° |
| 2026-04-25 20:12 | -23.15190 | -46.79294 | 11944 ft | 378 kts | 105° |
| 2026-04-25 20:12 | -23.15831 | -46.76557 | 11528 ft | 372 kts | 105° |
| 2026-04-25 20:12 | -23.16488 | -46.73888 | 11163 ft | 355 kts | 108° |
| 2026-04-25 20:12 | -23.16722 | -46.73055 | 11097 ft | 352 kts | 109° |
| 2026-04-25 20:13 | -23.17880 | -46.68920 | 10872 ft | 335 kts | 109° |
| 2026-04-25 20:13 | -23.18543 | -46.66527 | 10733 ft | 325 kts | 108° |
| 2026-04-25 20:13 | -23.19183 | -46.64203 | 10577 ft | 317 kts | 108° |
| 2026-04-25 20:13 | -23.19803 | -46.61949 | 10434 ft | 309 kts | 108° |
| 2026-04-25 20:14 | -23.20412 | -46.59733 | 10311 ft | 301 kts | 108° |
| 2026-04-25 20:14 | -23.21001 | -46.57588 | 10180 ft | 294 kts | 108° |
| 2026-04-25 20:14 | -23.21578 | -46.55488 | 10025 ft | 286 kts | 109° |
| 2026-04-25 20:14 | -23.22146 | -46.53415 | 9773 ft | 284 kts | 109° |
| 2026-04-25 20:15 | -23.22703 | -46.51381 | 9470 ft | 283 kts | 108° |
| 2026-04-25 20:15 | -23.23270 | -46.49317 | 9140 ft | 282 kts | 108° |
| 2026-04-25 20:15 | -23.23820 | -46.47306 | 8866 ft | 280 kts | 108° |
| 2026-04-25 20:15 | -23.24388 | -46.45234 | 8575 ft | 286 kts | 108° |
| 2026-04-25 20:16 | -23.24956 | -46.43156 | 8298 ft | 290 kts | 108° |
| 2026-04-25 20:16 | -23.25528 | -46.41060 | 7980 ft | 292 kts | 108° |
| 2026-04-25 20:16 | -23.26111 | -46.38926 | 7681 ft | 291 kts | 108° |
| 2026-04-25 20:16 | -23.26683 | -46.36832 | 7383 ft | 290 kts | 108° |
| 2026-04-25 20:17 | -23.27254 | -46.34738 | 7073 ft | 283 kts | 107° |
| 2026-04-25 20:17 | -23.27790 | -46.32773 | 6905 ft | 264 kts | 108° |
| 2026-04-25 20:17 | -23.28299 | -46.30909 | 6813 ft | 247 kts | 107° |
| 2026-04-25 20:17 | -23.28772 | -46.29166 | 6722 ft | 234 kts | 108° |
| 2026-04-25 20:18 | -23.29253 | -46.27534 | 6592 ft | 224 kts | 117° |
| 2026-04-25 20:18 | -23.30196 | -46.26267 | 6409 ft | 211 kts | 149° |
| 2026-04-25 20:18 | -23.31504 | -46.25690 | 6286 ft | 195 kts | 177° |
| 2026-04-25 20:18 | -23.32802 | -46.25768 | 6202 ft | 183 kts | 197° |
| 2026-04-25 20:19 | -23.34024 | -46.26123 | 6103 ft | 182 kts | 200° |
| 2026-04-25 20:19 | -23.35247 | -46.26524 | 6019 ft | 183 kts | 201° |
| 2026-04-25 20:19 | -23.36455 | -46.26950 | 5906 ft | 183 kts | 204° |
| 2026-04-25 20:19 | -23.37462 | -46.27719 | 5668 ft | 175 kts | 238° |
| 2026-04-25 20:20 | -23.37949 | -46.28902 | 5419 ft | 173 kts | 252° |
| 2026-04-25 20:20 | -23.38364 | -46.30128 | 5239 ft | 174 kts | 251° |
| 2026-04-25 20:20 | -23.38787 | -46.31361 | 4963 ft | 172 kts | 252° |
| 2026-04-25 20:20 | -23.39164 | -46.32580 | 4782 ft | 170 kts | 255° |
| 2026-04-25 20:21 | -23.39511 | -46.33784 | 4528 ft | 162 kts | 256° |
| 2026-04-25 20:21 | -23.39821 | -46.34917 | 4340 ft | 153 kts | 255° |
| 2026-04-25 20:21 | -23.40115 | -46.36008 | 4131 ft | 148 kts | 255° |
| 2026-04-25 20:21 | -23.40401 | -46.37067 | 3937 ft | 146 kts | 256° |
| 2026-04-25 20:22 | -23.40683 | -46.38117 | 3745 ft | 144 kts | 255° |
| 2026-04-25 20:22 | -23.40776 | -46.38470 | 3674 ft | 144 kts | 255° |
| 2026-04-25 20:22 | -23.41244 | -46.40208 | 3403 ft | 140 kts | 256° |
| 2026-04-25 20:22 | -23.41540 | -46.41237 | 3209 ft | 143 kts | 257° |
| 2026-04-25 20:23 | -23.41804 | -46.42257 | 2967 ft | 143 kts | 261° |
| 2026-04-25 20:23 | -23.42071 | -46.43335 | 2798 ft | 145 kts | 256° |
| 2026-04-25 20:23 | -23.42356 | -46.44372 | 2613 ft | 142 kts | 256° |
| 2026-04-25 20:23 | -23.42641 | -46.45417 | 2467 ft | 137 kts | 255° |
| 2026-04-25 20:24 | -23.42877 | -46.46297 | 2467 ft | 105 kts | 253° |
| 2026-04-25 20:24 | -23.43050 | -46.46939 | 2465 ft | 74 kts | 254° |
| 2026-04-25 20:24 | -23.43170 | -46.47383 | 2467 ft | 51 kts | 254° |
| 2026-04-25 20:24 | -23.43272 | -46.47767 | 2468 ft | 53 kts | 253° |
| 2026-04-25 20:25 | -23.43353 | -46.48056 | 2464 ft | 33 kts | 252° |
| 2026-04-25 20:25 | -23.43410 | -46.48270 | 2463 ft | 22 kts | 259° |
| 2026-04-25 20:25 | -23.43315 | -46.48361 | 2464 ft | 25 kts | 338° |
| 2026-04-25 20:25 | -23.43164 | -46.48410 | 2465 ft | 14 kts | 343° |
| 2026-04-25 20:26 | -23.43098 | -46.48430 | 2466 ft | 20 kts | 344° |
| 2026-04-25 20:26 | -23.43005 | -46.48452 | 2469 ft | 12 kts | 359° |
| 2026-04-25 20:26 | -23.42923 | -46.48450 | 2465 ft | 11 kts | 1° |
| 2026-04-25 20:26 | -23.42858 | -46.48451 | 2466 ft | 8 kts | 358° |
| 2026-04-25 20:27 | -23.42825 | -46.48478 | 2464 ft | 6 kts | 280° |
| 2026-04-25 20:27 | -23.42819 | -46.48530 | 2464 ft | 6 kts | 275° |
| 2026-04-25 20:27 | -23.42817 | -46.48547 | 2464 ft | 0 kts | 275° |